Time;durP1;ratioP1;P1;durP2;ratioP2;P2;SDS_P1;SDS_P2;PMS_P1;PMS_P2;Temp;Humidity;BMP_temperature;BMP_pressure;BME280_temperature;BME280_humidity;BME280_pressure;Samples;Min_cycle;Max_cycle;Signal;HPM_P1;HPM_P2
2022/04/28 00:01:55;;;;;;;13.53;5.20;;;;;;;8.38;59.96;102762.44;5255085;28;20112;-78
2022/04/28 00:04:26;;;;;;;10.87;5.37;;;;;;;8.51;59.95;102780.47;5269177;28;20070;-78
2022/04/28 00:06:57;;;;;;;12.57;4.83;;;;;;;8.22;60.57;102778.38;5268891;28;20036;-78
2022/04/28 00:09:29;;;;;;;9.40;4.83;;;;;;;8.26;60.54;102783.53;5264870;28;20036;-78
2022/04/28 00:12:00;;;;;;;12.30;4.87;;;;;;;8.40;60.07;102784.16;5257779;28;20467;-78
2022/04/28 00:14:32;;;;;;;13.63;5.40;;;;;;;8.15;60.62;102782.00;5267781;28;21946;-79
2022/04/28 00:17:04;;;;;;;10.57;5.27;;;;;;;8.09;61.00;102774.28;5266800;28;20025;-78
2022/04/28 00:19:35;;;;;;;11.80;4.63;;;;;;;8.26;60.32;102786.16;5268750;28;20036;-78
2022/04/28 00:22:07;;;;;;;12.80;5.30;;;;;;;8.09;60.97;102788.22;5266974;28;20459;-78
2022/04/28 00:24:38;;;;;;;17.03;6.20;;;;;;;8.18;60.64;102784.56;5269201;28;20072;-78
2022/04/28 00:27:09;;;;;;;13.47;4.50;;;;;;;7.99;61.55;102786.66;5267085;28;20040;-78
2022/04/28 00:29:41;;;;;;;11.63;5.47;;;;;;;8.08;61.57;102796.06;5268740;28;20482;-78
2022/04/28 00:32:12;;;;;;;10.87;5.97;;;;;;;8.09;61.02;102798.66;5268658;28;20021;-78
2022/04/28 00:34:44;;;;;;;15.37;5.73;;;;;;;7.96;61.75;102786.69;5266870;28;20492;-78
2022/04/28 00:37:15;;;;;;;12.83;5.57;;;;;;;8.06;61.24;102783.06;5266947;28;20475;-78
2022/04/28 00:39:47;;;;;;;15.53;5.77;;;;;;;7.94;61.77;102786.72;5267595;28;20033;-78
2022/04/28 00:42:19;;;;;;;12.60;5.47;;;;;;;7.74;62.29;102790.53;5267997;28;20107;-78
2022/04/28 00:44:50;;;;;;;13.73;6.30;;;;;;;7.87;61.92;102785.13;5267951;28;20532;-78
2022/04/28 00:47:22;;;;;;;9.10;4.93;;;;;;;8.01;61.58;102779.66;5268746;28;20031;-78
2022/04/28 00:52:43;;;;;;;14.30;5.67;;;;;;;7.89;62.45;102785.09;5271333;28;20036;-78
2022/04/28 00:55:15;;;;;;;13.93;5.50;;;;;;;7.91;61.90;102773.72;5268559;28;20535;-78
2022/04/28 00:57:47;;;;;;;11.67;5.97;;;;;;;7.75;62.55;102778.34;5271062;28;20028;-78
2022/04/28 01:00:18;;;;;;;12.20;5.37;;;;;;;7.68;62.84;102777.56;5268674;28;20111;-78
2022/04/28 01:02:49;;;;;;;12.17;5.47;;;;;;;7.50;63.80;102769.16;5268016;28;20159;-78
2022/04/28 01:05:20;;;;;;;12.63;5.70;;;;;;;7.62;62.79;102775.09;5267877;28;20472;-79
2022/04/28 01:07:52;;;;;;;16.50;6.63;;;;;;;7.55;63.80;102776.94;5267128;22;20076;-78
2022/04/28 01:10:23;;;;;;;15.07;5.67;;;;;;;7.54;63.12;102769.13;5245939;28;20033;-78
2022/04/28 01:12:55;;;;;;;14.27;5.40;;;;;;;7.46;63.45;102775.34;5227266;28;20026;-78
2022/04/28 01:15:26;;;;;;;14.33;5.10;;;;;;;7.41;64.11;102778.88;5225038;28;20037;-79
2022/04/28 01:17:58;;;;;;;13.47;5.60;;;;;;;7.53;63.81;102783.03;5226847;28;20021;-78
2022/04/28 01:20:29;;;;;;;16.83;6.23;;;;;;;7.49;63.77;102780.50;5225134;28;20091;-78
2022/04/28 01:23:00;;;;;;;12.60;5.53;;;;;;;7.51;63.96;102785.69;5226772;28;20053;-77
2022/04/28 01:25:32;;;;;;;10.90;5.30;;;;;;;7.35;64.19;102785.91;5223442;28;20079;-78
2022/04/28 01:28:04;;;;;;;13.73;6.27;;;;;;;7.30;64.40;102779.91;5226626;28;20391;-78
2022/04/28 01:30:37;;;;;;;18.23;7.27;;;;;;;7.28;64.73;102778.22;5225305;28;20105;-78
2022/04/28 01:33:08;;;;;;;10.47;5.33;;;;;;;7.17;64.73;102784.44;5212532;28;20017;-77
2022/04/28 01:35:39;;;;;;;12.43;5.57;;;;;;;7.32;64.33;102779.88;5226453;28;20463;-78
2022/04/28 01:38:11;;;;;;;9.93;5.80;;;;;;;7.19;64.93;102780.06;5226014;28;20469;-78
2022/04/28 01:40:43;;;;;;;15.97;6.37;;;;;;;7.19;65.20;102768.78;5225641;28;20022;-78
2022/04/28 01:43:15;;;;;;;16.43;6.10;;;;;;;7.25;63.97;102774.78;5225812;28;20030;-78
2022/04/28 01:45:46;;;;;;;13.07;5.23;;;;;;;7.30;64.31;102781.63;5226457;28;20044;-78
2022/04/28 01:48:17;;;;;;;12.87;5.77;;;;;;;7.10;65.08;102782.81;5226249;28;20044;-78
2022/04/28 01:56:28;;;;;;;11.10;5.53;;;;;;;7.12;65.61;102781.03;5225697;28;20037;-78
2022/04/28 01:58:59;;;;;;;13.43;6.07;;;;;;;7.07;65.76;102781.09;5224594;28;20026;-78
2022/04/28 02:01:31;;;;;;;13.23;6.33;;;;;;;6.92;66.24;102782.16;5226874;28;20034;-78
2022/04/28 02:04:02;;;;;;;16.03;6.50;;;;;;;7.00;66.18;102780.31;5229542;28;20088;-78
2022/04/28 02:06:33;;;;;;;13.67;6.57;;;;;;;6.92;66.28;102791.72;5230355;28;20123;-78
2022/04/28 02:09:05;;;;;;;15.00;6.37;;;;;;;6.78;66.44;102779.75;5229415;28;20124;-78
2022/04/28 02:11:36;;;;;;;12.83;6.37;;;;;;;6.76;66.45;102779.75;5228938;28;20080;-78
2022/04/28 02:14:07;;;;;;;14.57;6.37;;;;;;;6.87;66.59;102795.25;5229940;28;20021;-78
2022/04/28 02:16:38;;;;;;;15.30;7.10;;;;;;;6.75;66.46;102772.84;5244892;28;20029;-78
2022/04/28 02:19:10;;;;;;;14.23;6.83;;;;;;;6.76;66.54;102791.91;5229706;28;20583;-78
2022/04/28 02:21:41;;;;;;;10.27;6.03;;;;;;;6.77;66.55;102786.69;5229320;28;20091;-78
2022/04/28 02:24:13;;;;;;;12.73;6.40;;;;;;;6.57;67.57;102775.63;5229382;28;20192;-78
2022/04/28 02:26:44;;;;;;;17.30;6.53;;;;;;;6.78;66.72;102784.94;5228814;28;20037;-78
2022/04/28 02:29:16;;;;;;;12.33;6.20;;;;;;;6.67;67.42;102789.44;5228129;28;20021;-78
2022/04/28 02:31:47;;;;;;;13.83;5.63;;;;;;;6.65;66.93;102769.47;5229348;28;20033;-78
2022/04/28 02:34:18;;;;;;;11.30;6.00;;;;;;;6.57;67.56;102775.63;5229218;28;20643;-78
2022/04/28 02:36:50;;;;;;;15.57;6.60;;;;;;;6.57;67.81;102786.06;5229489;28;20029;-78
2022/04/28 02:39:21;;;;;;;14.47;5.93;;;;;;;6.57;68.11;102775.63;5228920;28;20025;-78
2022/04/28 02:41:53;;;;;;;19.53;6.97;;;;;;;6.56;68.36;102790.44;5227675;28;20052;-79
2022/04/28 02:44:24;;;;;;;13.37;6.80;;;;;;;6.49;68.31;102787.00;5229403;28;20053;-78
2022/04/28 02:46:55;;;;;;;17.07;7.47;;;;;;;6.34;69.18;102787.16;5227898;28;20120;-77
2022/04/28 02:49:27;;;;;;;20.83;8.67;;;;;;;6.46;68.31;102771.41;5229086;28;20025;-78
2022/04/28 02:51:58;;;;;;;21.37;8.10;;;;;;;6.50;68.43;102772.25;5228516;28;20033;-78
2022/04/28 02:54:30;;;;;;;13.70;5.87;;;;;;;6.36;68.48;102769.81;5227866;28;20522;-78
2022/04/28 02:57:01;;;;;;;18.07;7.73;;;;;;;6.48;68.56;102777.47;5226337;28;20388;-78
2022/04/28 02:59:33;;;;;;;17.47;7.47;;;;;;;6.38;68.71;102776.72;5227485;28;20036;-78
2022/04/28 03:02:04;;;;;;;16.03;6.83;;;;;;;6.24;69.63;102776.88;5228945;28;20037;-78
2022/04/28 03:04:35;;;;;;;16.20;7.63;;;;;;;6.52;68.28;102768.75;5228137;28;20033;-78
2022/04/28 03:12:47;;;;;;;13.13;7.57;;;;;;;6.36;69.14;102778.47;5228567;28;20037;-77
2022/04/28 03:15:18;;;;;;;15.57;6.97;;;;;;;6.21;69.42;102784.72;5227465;28;20029;-78
2022/04/28 03:17:50;;;;;;;19.23;8.00;;;;;;;6.03;70.69;102765.78;5227970;28;20021;-78
2022/04/28 03:20:22;;;;;;;13.60;7.03;;;;;;;6.16;70.58;102776.94;5227227;28;20514;-78
2022/04/28 03:22:53;;;;;;;15.30;7.13;;;;;;;6.17;70.12;102778.69;5228393;28;20057;-78
2022/04/28 03:25:24;;;;;;;17.27;7.50;;;;;;;6.20;70.13;102777.78;5227378;28;20108;-78
2022/04/28 03:27:56;;;;;;;17.47;8.07;;;;;;;6.09;70.53;102777.03;5228633;28;20076;-78
2022/04/28 03:30:28;;;;;;;28.40;8.93;;;;;;;6.03;70.96;102776.16;5226584;28;20042;-78
2022/04/28 03:33:00;;;;;;;22.10;8.40;;;;;;;6.25;70.09;102782.94;5228715;28;20400;-77
2022/04/28 03:35:31;;;;;;;17.60;8.30;;;;;;;6.04;70.79;102777.88;5225755;28;20057;-79
2022/04/28 03:38:02;;;;;;;15.73;6.60;;;;;;;6.03;70.89;102781.38;5228295;28;20025;-78
2022/04/28 03:40:34;;;;;;;20.47;8.97;;;;;;;6.21;69.83;102774.31;5227193;28;20167;-78
2022/04/28 03:43:05;;;;;;;22.87;7.67;;;;;;;6.07;70.76;102786.56;5228393;28;20037;-76
2022/04/28 03:45:37;;;;;;;14.30;7.03;;;;;;;6.16;70.23;102786.50;5228159;28;20469;-78
2022/04/28 03:48:09;;;;;;;21.47;8.40;;;;;;;6.10;70.40;102781.34;5227713;28;20061;-77
2022/04/28 03:50:40;;;;;;;15.90;7.80;;;;;;;5.91;71.50;102790.16;5228576;28;20026;-79
2022/04/28 03:53:12;;;;;;;19.93;7.50;;;;;;;5.94;71.49;102784.06;5227321;28;20240;-78
2022/04/28 03:55:43;;;;;;;18.83;8.73;;;;;;;6.10;70.38;102787.41;5226958;28;20088;-79
2022/04/28 03:58:14;;;;;;;22.03;9.70;;;;;;;6.02;70.89;102792.63;5225922;28;20468;-78
2022/04/28 04:00:49;;;;;;;19.87;8.43;;;;;;;6.19;69.93;102796.88;5228065;28;20033;-78
2022/04/28 04:03:20;;;;;;;15.55;7.97;;;;;;;6.01;71.00;102798.72;5226543;28;20021;-78
2022/04/28 04:05:51;;;;;;;13.67;7.73;;;;;;;5.89;71.46;102788.44;5227003;28;20522;-78
2022/04/28 04:08:23;;;;;;;16.33;8.17;;;;;;;5.86;71.43;102798.88;5226526;28;20533;-78
2022/04/28 04:10:54;;;;;;;19.70;8.47;;;;;;;5.84;71.95;102796.28;5224843;28;20026;-78
2022/04/28 04:13:25;;;;;;;19.20;10.13;;;;;;;5.86;71.79;102804.06;5227403;28;20035;-78
2022/04/28 04:15:57;;;;;;;16.83;8.43;;;;;;;5.79;71.80;102792.84;5225573;28;20506;-78
2022/04/28 04:18:28;;;;;;;28.23;7.90;;;;;;;5.90;71.29;102800.56;5227809;28;20037;-78
2022/04/28 04:20:59;;;;;;;17.53;8.83;;;;;;;5.72;72.38;102796.38;5227210;28;20043;-78
2022/04/28 04:23:31;;;;;;;17.20;9.20;;;;;;;5.65;72.34;102800.75;5226866;28;20087;-78
2022/04/28 04:26:02;;;;;;;18.30;8.70;;;;;;;5.76;71.84;102792.88;5226269;28;20047;-78
2022/04/28 04:28:33;;;;;;;16.57;8.13;;;;;;;5.73;72.68;102809.34;5227054;28;20126;-78
2022/04/28 04:33:55;;;;;;;18.60;9.20;;;;;;;5.60;72.94;102802.53;5227000;28;20500;-78
2022/04/28 04:36:26;;;;;;;15.40;8.87;;;;;;;5.72;72.53;102812.84;5228235;28;20029;-77
2022/04/28 04:38:57;;;;;;;14.00;8.30;;;;;;;5.63;73.03;102805.09;5230478;28;20068;-77
2022/04/28 04:41:29;;;;;;;18.87;9.73;;;;;;;5.60;73.35;102808.59;5226233;28;20040;-78
2022/04/28 04:44:00;;;;;;;15.70;8.10;;;;;;;5.62;73.25;102809.44;5226364;28;20037;-78
2022/04/28 04:46:31;;;;;;;21.73;10.67;;;;;;;5.51;74.05;102811.25;5227833;28;20096;-78
2022/04/28 04:49:03;;;;;;;18.70;9.20;;;;;;;5.54;74.13;102812.09;5226810;28;20057;-78
2022/04/28 04:51:34;;;;;;;22.10;9.00;;;;;;;5.65;73.86;102824.16;5226682;28;20030;-78
2022/04/28 04:54:05;;;;;;;17.07;9.97;;;;;;;5.58;73.95;102823.34;5226880;28;20026;-78
2022/04/28 04:56:38;;;;;;;19.97;10.10;;;;;;;5.71;73.77;102821.50;5225916;28;20030;-78
2022/04/28 04:59:09;;;;;;;23.90;10.00;;;;;;;5.73;73.40;102814.56;5225308;28;20017;-77
2022/04/28 05:01:41;;;;;;;23.90;9.90;;;;;;;5.69;74.12;102831.91;5226585;28;20036;-78
2022/04/28 05:04:13;;;;;;;19.47;9.97;;;;;;;5.64;74.22;102831.09;5225475;28;20111;-78
2022/04/28 05:06:44;;;;;;;20.13;10.00;;;;;;;5.70;73.96;102827.59;5225242;28;20103;-78
2022/04/28 05:09:16;;;;;;;17.97;9.40;;;;;;;5.75;73.80;102833.63;5224777;28;20181;-78
2022/04/28 05:11:48;;;;;;;16.10;9.23;;;;;;;5.76;73.60;102837.94;5225501;28;20037;-77
2022/04/28 05:14:19;;;;;;;23.27;9.97;;;;;;;5.75;73.90;102841.41;5225028;28;20033;-78
2022/04/28 05:16:50;;;;;;;20.47;9.50;;;;;;;5.80;74.06;102842.25;5225885;28;20029;-78
2022/04/28 05:19:21;;;;;;;21.23;10.73;;;;;;;5.75;74.41;102856.16;5226594;28;20079;-78
2022/04/28 05:21:54;;;;;;;22.03;9.67;;;;;;;5.81;74.32;102849.16;5226623;28;20021;-78
2022/04/28 05:24:26;;;;;;;18.87;11.03;;;;;;;5.72;74.63;102857.03;5226946;28;20079;-78
2022/04/28 05:26:57;;;;;;;17.93;10.10;;;;;;;5.73;75.03;102855.28;5224889;28;20030;-78
2022/04/28 05:29:28;;;;;;;21.23;10.53;;;;;;;5.78;75.11;102856.13;5226547;28;20068;-78
2022/04/28 05:31:59;;;;;;;19.20;11.17;;;;;;;5.74;75.34;102852.66;5226230;28;20033;-78
2022/04/28 05:34:31;;;;;;;28.07;11.43;;;;;;;5.78;75.42;102853.50;5226276;28;20098;-79
2022/04/28 05:37:02;;;;;;;16.43;9.87;;;;;;;5.98;74.05;102861.19;5227583;28;20045;-79
2022/04/28 05:39:34;;;;;;;24.50;10.87;;;;;;;5.93;75.28;102868.16;5229713;28;20025;-77
2022/04/28 05:42:07;;;;;;;18.97;10.77;;;;;;;5.96;74.88;102864.66;5233228;28;20034;-78
2022/04/28 05:47:29;;;;;;;19.63;11.20;;;;;;;6.17;75.04;102871.47;5230040;28;20061;-78
2022/04/28 05:50:01;;;;;;;19.33;12.73;;;;;;;6.18;74.56;102878.38;5230569;28;20029;-78
2022/04/28 05:52:32;;;;;;;26.37;11.23;;;;;;;6.26;74.59;102876.59;5230380;28;20014;-79
2022/04/28 05:55:04;;;;;;;22.17;11.40;;;;;;;6.34;74.42;102881.72;5228854;28;20028;-78
2022/04/28 05:57:35;;;;;;;20.13;11.23;;;;;;;6.35;75.02;102886.06;5246054;28;20083;-78
2022/04/28 06:00:07;;;;;;;28.57;13.63;;;;;;;6.35;75.84;102882.59;5249309;28;20033;-78
2022/04/28 06:02:39;;;;;;;20.03;12.37;;;;;;;6.38;75.27;102880.84;5230384;28;20599;-78
2022/04/28 06:05:10;;;;;;;18.63;11.43;;;;;;;6.53;74.28;102890.22;5228249;28;20108;-78
2022/04/28 06:07:41;;;;;;;24.23;12.93;;;;;;;6.51;75.20;102891.97;5230785;28;20148;-78
2022/04/28 06:10:13;;;;;;;24.63;12.50;;;;;;;6.54;74.83;102891.09;5244719;28;20051;-78
2022/04/28 06:12:44;;;;;;;22.97;11.57;;;;;;;6.67;74.06;102897.03;5230319;28;20029;-78
2022/04/28 06:15:16;;;;;;;29.97;12.67;;;;;;;6.56;74.87;102897.16;5229878;28;20037;-79
2022/04/28 06:17:47;;;;;;;23.70;12.83;;;;;;;6.72;74.55;102910.88;5228147;28;20029;-80
2022/04/28 06:20:19;;;;;;;21.90;12.17;;;;;;;6.80;74.49;102904.72;5229894;28;20366;-78
2022/04/28 06:22:50;;;;;;;25.10;13.03;;;;;;;6.85;74.36;102906.41;5229315;28;20708;-78
2022/04/28 06:25:23;;;;;;;24.73;13.47;;;;;;;6.80;74.88;102903.00;5229004;28;20105;-78
2022/04/28 06:27:54;;;;;;;26.90;12.60;;;;;;;6.98;74.69;102912.34;5244329;28;20091;-78
2022/04/28 06:30:26;;;;;;;24.87;13.60;;;;;;;6.98;74.06;102907.13;5229635;28;20029;-78
2022/04/28 06:32:57;;;;;;;26.37;13.77;;;;;;;7.08;73.73;102920.06;5229586;28;20253;-78
2022/04/28 06:35:28;;;;;;;25.73;12.37;;;;;;;7.10;73.58;102916.53;5229117;28;20099;-79
2022/04/28 06:38:00;;;;;;;25.73;12.90;;;;;;;7.16;73.07;102910.41;5229466;28;20120;-77
2022/04/28 06:40:32;;;;;;;22.63;11.53;;;;;;;7.19;72.78;102920.78;5227968;28;20028;-78
2022/04/28 06:43:03;;;;;;;23.27;12.17;;;;;;;7.20;72.88;102913.84;5229642;28;20446;-78
2022/04/28 06:45:34;;;;;;;23.03;12.90;;;;;;;7.23;72.31;102909.44;5229361;28;20025;-78
2022/04/28 06:48:06;;;;;;;20.77;11.50;;;;;;;7.36;72.52;102927.56;5228607;28;20025;-77
2022/04/28 06:50:37;;;;;;;17.73;11.77;;;;;;;7.39;72.52;102922.28;5229688;28;20032;-77
2022/04/28 06:53:08;;;;;;;21.97;12.00;;;;;;;7.52;73.11;102919.53;5228653;28;20448;-78
2022/04/28 06:55:40;;;;;;;23.30;11.77;;;;;;;7.62;72.61;102926.34;5228465;28;20029;-78
2022/04/28 06:58:11;;;;;;;19.80;10.73;;;;;;;7.67;71.79;102924.53;5227058;28;20253;-78
2022/04/28 07:00:43;;;;;;;24.00;12.80;;;;;;;7.74;72.42;102928.78;5229457;28;20033;-78
2022/04/28 07:03:15;;;;;;;24.73;12.57;;;;;;;7.84;71.20;102929.50;5243881;28;20860;-78
2022/04/28 07:05:46;;;;;;;20.13;11.07;;;;;;;8.03;70.88;102937.06;5227465;28;20052;-77
2022/04/28 07:08:17;;;;;;;32.30;12.47;;;;;;;8.17;70.38;102936.00;5243918;28;20058;-78
2022/04/28 07:10:49;;;;;;;24.83;11.70;;;;;;;8.34;69.08;102935.72;5227640;28;20033;-79
2022/04/28 07:13:20;;;;;;;20.07;10.77;;;;;;;8.43;67.83;102940.78;5228930;28;20044;-78
2022/04/28 07:15:51;;;;;;;18.13;10.73;;;;;;;8.89;67.39;102942.63;5228151;28;20033;-78
2022/04/28 07:18:23;;;;;;;23.73;11.20;;;;;;;9.04;66.87;102952.78;5229002;28;20039;-78
2022/04/28 07:20:54;;;;;;;23.80;11.13;;;;;;;9.36;66.59;102953.03;5228337;28;20030;-79
2022/04/28 07:23:25;;;;;;;19.40;10.70;;;;;;;9.64;64.78;102956.81;5228670;28;20090;-79
2022/04/28 07:25:57;;;;;;;15.83;9.80;;;;;;;10.11;63.68;102953.13;5227248;28;20075;-79
2022/04/28 07:28:28;;;;;;;19.77;10.00;;;;;;;10.39;61.74;102955.94;5228684;28;20029;-79
2022/04/28 07:31:00;;;;;;;14.13;9.03;;;;;;;10.78;60.94;102956.75;5232567;28;20045;-79
2022/04/28 07:33:33;;;;;;;20.90;9.97;;;;;;;11.27;59.15;102960.66;5228215;28;20041;-78
2022/04/28 07:36:04;;;;;;;20.93;9.30;;;;;;;11.71;57.32;102939.25;5228075;28;20527;-78
2022/04/28 07:38:35;;;;;;;17.40;10.17;;;;;;;12.14;55.61;102962.47;5227972;28;20065;-78
2022/04/28 07:41:07;;;;;;;20.63;10.27;;;;;;;12.93;53.73;102961.56;5227637;28;20025;-78
2022/04/28 07:43:39;;;;;;;20.87;8.83;;;;;;;13.41;51.85;102962.44;5226655;28;20107;-79
2022/04/28 07:46:10;;;;;;;22.03;9.03;;;;;;;13.94;50.49;102959.56;5227666;28;20809;-79
2022/04/28 07:48:41;;;;;;;17.57;7.73;;;;;;;14.56;49.84;102965.81;5228524;28;20159;-79
2022/04/28 07:51:13;;;;;;;18.43;8.23;;;;;;;14.92;48.00;102966.97;5227513;28;20034;-79
2022/04/28 07:53:44;;;;;;;14.93;7.80;;;;;;;15.22;46.28;102964.69;5227871;28;20404;-78
2022/04/28 07:56:17;;;;;;;16.20;8.67;;;;;;;15.94;45.08;102966.66;5226734;28;20079;-79
2022/04/28 07:58:48;;;;;;;23.40;8.03;;;;;;;16.40;43.71;102973.25;5227554;28;20065;-79
2022/04/28 08:01:20;;;;;;;18.77;8.50;;;;;;;16.87;42.89;102970.00;5227644;28;20318;-78
2022/04/28 08:03:51;;;;;;;20.93;7.10;;;;;;;17.38;41.85;102977.03;5225683;28;20032;-79
2022/04/28 08:06:23;;;;;;;16.50;7.30;;;;;;;17.85;40.71;102974.44;5227846;28;20163;-79
2022/04/28 08:08:54;;;;;;;16.97;7.07;;;;;;;18.09;40.26;102979.25;5227161;28;20045;-78
2022/04/28 08:11:25;;;;;;;14.03;6.50;;;;;;;18.42;38.20;102978.25;5226623;28;20055;-79
2022/04/28 08:13:57;;;;;;;13.93;6.80;;;;;;;18.78;38.06;102983.25;5226973;28;20061;-79
2022/04/28 08:16:28;;;;;;;16.00;6.83;;;;;;;18.93;36.73;102984.09;5226590;28;20061;-79
2022/04/28 08:19:01;;;;;;;13.10;7.00;;;;;;;19.54;36.23;102989.16;5227878;28;20026;-79
2022/04/28 08:21:32;;;;;;;14.77;6.93;;;;;;;19.68;36.35;102985.63;5227030;28;20559;-80
2022/04/28 08:24:04;;;;;;;15.20;6.72;;;;;;;19.39;35.16;102990.97;5226279;28;20104;-79
2022/04/28 08:26:35;;;;;;;13.25;6.40;;;;;;;19.77;34.43;102975.31;5227017;28;20038;-79
2022/04/28 08:29:07;;;;;;;14.05;6.40;;;;;;;20.10;34.47;102974.06;5224839;28;20491;-79
2022/04/28 08:31:43;;;;;;;16.88;7.72;;;;;;;21.05;34.29;102992.56;5226252;28;20041;-79
2022/04/28 08:34:17;;;;;;;17.23;6.82;;;;;;;20.64;33.50;102998.84;5226852;28;20017;-79
2022/04/28 08:36:49;;;;;;;;;;;;;;;22.55;34.90;102997.63;5226752;28;20051;-79
2022/04/28 08:39:20;;;;;;;14.75;5.90;;;;;;;21.11;32.67;103000.09;5225090;28;19913;-80
2022/04/28 08:41:53;;;;;;;13.85;6.97;;;;;;;21.59;32.09;102999.31;5227332;28;20036;-78
2022/04/28 08:44:26;;;;;;;11.05;5.72;;;;;;;21.71;31.69;103004.72;5226705;28;20160;-79
2022/04/28 08:46:59;;;;;;;17.88;7.75;;;;;;;21.76;31.09;102995.41;5227109;28;20051;-79
2022/04/28 08:49:32;;;;;;;17.15;6.60;;;;;;;22.50;30.18;102997.13;5226657;28;20025;-79
2022/04/28 08:52:06;;;;;;;15.18;6.10;;;;;;;22.24;30.24;103003.50;5226949;28;20033;-79
2022/04/28 08:54:39;;;;;;;11.13;5.88;;;;;;;22.63;29.92;102997.03;5225900;28;20021;-79
2022/04/28 08:57:13;;;;;;;12.63;5.65;;;;;;;22.22;29.41;103000.09;5242090;28;20103;-78
2022/04/28 08:59:45;;;;;;;13.88;5.68;;;;;;;22.52;28.82;102995.19;5225913;28;20027;-79
2022/04/28 09:02:26;;;;;;;18.10;7.47;;;;;;;22.94;29.83;103002.66;5227547;28;20753;-79
2022/04/28 09:05:02;;;;;;;16.13;6.85;;;;;;;22.94;28.62;102998.16;5224758;28;20052;-79
2022/04/28 09:07:38;;;;;;;14.57;7.47;;;;;;;22.73;28.63;102998.03;5241864;28;20057;-79
2022/04/28 09:10:29;;;;;;;17.23;7.32;;;;;;;23.83;29.42;102995.56;5224836;28;20045;-80
2022/04/28 09:16:08;;;;;;;14.40;6.93;;;;;;;24.41;26.80;102988.09;5170863;28;20105;-79
2022/04/28 09:18:40;;;;;;;14.35;6.55;;;;;;;23.97;27.71;102988.19;5217704;28;20041;-79
2022/04/28 09:21:11;;;;;;;13.00;6.70;;;;;;;24.36;27.19;102983.16;5225437;28;20547;-80
2022/04/28 09:23:42;;;;;;;13.63;6.55;;;;;;;23.98;27.44;102992.59;5226384;28;20333;-79
2022/04/28 09:26:14;;;;;;;17.55;7.38;;;;;;;25.69;26.34;102992.22;5225633;28;20018;-79
2022/04/28 09:28:46;;;;;;;17.05;6.72;;;;;;;25.83;25.27;102985.56;5226690;28;20033;-72
2022/04/28 09:31:17;;;;;;;17.70;7.13;;;;;;;24.45;25.51;102986.88;5225314;28;20025;-79
2022/04/28 09:33:49;;;;;;;17.88;7.35;;;;;;;25.36;24.94;102982.53;5224637;28;20055;-78
2022/04/28 09:36:21;;;;;;;15.73;6.90;;;;;;;25.11;26.11;102987.44;5226050;28;20025;-80
2022/04/28 09:38:53;;;;;;;16.10;7.70;;;;;;;24.99;25.74;102980.50;5225327;28;20151;-80
2022/04/28 09:44:16;;;;;;;13.02;6.30;;;;;;;25.29;25.42;102984.06;5226505;28;20116;-80
2022/04/28 09:46:49;;;;;;;19.02;7.00;;;;;;;24.76;24.99;102983.34;5225870;28;20062;-80
2022/04/28 09:49:22;;;;;;;17.63;6.43;;;;;;;25.82;24.36;102975.81;5226579;28;20053;-78
2022/04/28 09:51:58;;;;;;;11.70;6.35;;;;;;;26.09;24.25;102983.13;5225293;28;20152;-75
2022/04/28 09:54:32;;;;;;;17.15;6.30;;;;;;;25.97;24.35;102978.91;5241043;28;20021;-80
2022/04/28 09:57:03;;;;;;;14.57;6.20;;;;;;;26.15;23.72;102979.00;5224397;28;20068;-80
2022/04/28 09:59:36;;;;;;;13.80;6.68;;;;;;;26.29;24.06;102975.03;5226122;28;20022;-79
2022/04/28 10:02:15;;;;;;;13.50;5.47;;;;;;;26.49;23.91;102958.88;5224401;28;20025;-79
2022/04/28 10:04:47;;;;;;;11.98;5.72;;;;;;;26.02;23.62;102963.22;5241683;28;20033;-80
2022/04/28 10:07:20;;;;;;;10.97;6.27;;;;;;;25.19;24.11;102969.81;5226192;28;20060;-78
2022/04/28 10:09:52;;;;;;;13.10;6.72;;;;;;;25.92;23.95;102963.22;5224633;28;20057;-78
2022/04/28 10:12:26;;;;;;;13.03;5.97;;;;;;;26.42;24.13;102950.56;5226111;28;20026;-75
2022/04/28 10:15:00;;;;;;;13.90;6.22;;;;;;;27.29;22.46;102960.19;5225577;28;20021;-77
2022/04/28 10:17:41;;;;;;;14.65;5.95;;;;;;;26.58;23.32;102955.31;5225738;28;20100;-77
2022/04/28 10:20:38;;;;;;;11.52;6.07;;;;;;;27.46;23.22;102957.63;5226039;28;20068;-78
2022/04/28 10:23:11;;;;;;;11.70;5.82;;;;;;;26.96;22.58;102956.25;5224339;28;20069;-78
2022/04/28 10:35:04;;;;;;;14.18;6.28;;;;;;;27.14;22.90;102953.63;5229642;28;20439;-78
2022/04/28 10:37:41;;;;;;;11.07;6.00;;;;;;;27.74;21.62;102951.31;5228598;28;20397;-78
2022/04/28 10:40:16;;;;;;;11.23;6.50;;;;;;;26.93;21.56;102952.03;5232350;28;20018;-78
2022/04/28 10:42:47;;;;;;;11.45;6.43;;;;;;;26.62;22.77;102952.34;5230381;28;20267;-78
2022/04/28 10:45:28;;;;;;;14.55;6.75;;;;;;;26.07;22.91;102950.22;5231899;28;20571;-78
2022/04/28 10:48:26;;;;;;;11.48;5.95;;;;;;;27.46;22.53;102952.25;5226963;28;20017;-77
2022/04/28 10:51:22;;;;;;;14.77;6.68;;;;;;;27.32;22.96;102939.34;5228575;28;20030;-78
2022/04/28 10:54:00;;;;;;;9.88;6.35;;;;;;;26.62;22.67;102949.66;5222557;28;20037;-72
2022/04/28 10:56:56;;;;;;;10.85;6.15;;;;;;;26.38;23.55;102935.75;5232723;28;20036;-77
2022/04/28 10:59:40;;;;;;;13.82;6.53;;;;;;;26.41;22.95;102939.97;5227237;28;20041;-78
2022/04/28 11:02:11;;;;;;;11.23;6.35;;;;;;;25.91;22.91;102941.91;5229064;28;20037;-79
2022/04/28 11:04:52;;;;;;;15.73;6.20;;;;;;;26.36;23.22;102936.88;5228491;28;21061;-78
2022/04/28 11:07:28;;;;;;;10.73;6.20;;;;;;;26.36;23.33;102928.84;5229710;28;20045;-75
2022/04/28 11:10:02;;;;;;;14.68;6.32;;;;;;;25.57;23.63;102935.13;5227568;28;20026;-78
2022/04/28 11:12:35;;;;;;;12.95;7.60;;;;;;;25.21;23.74;102941.03;5229105;28;20043;-78
2022/04/28 11:15:10;;;;;;;10.93;7.07;;;;;;;24.80;24.37;102938.38;5226582;28;20056;-78
2022/04/28 11:17:46;;;;;;;15.07;6.70;;;;;;;25.37;23.92;102935.13;5228811;28;20116;-78
2022/04/28 11:20:21;;;;;;;16.40;7.95;;;;;;;24.64;24.46;102913.81;5227025;28;20025;-78
2022/04/28 11:22:52;;;;;;;11.32;7.57;;;;;;;24.46;24.28;102931.47;5228522;28;20025;-79
2022/04/28 11:25:24;;;;;;;12.95;7.40;;;;;;;24.22;25.39;102928.13;5225525;28;20408;-78
2022/04/28 11:27:56;;;;;;;13.23;8.05;;;;;;;23.12;25.58;102928.19;5228496;28;20041;-79
2022/04/28 11:30:28;;;;;;;11.77;6.75;;;;;;;24.67;24.82;102927.88;5226778;28;20714;-79
2022/04/28 11:32:59;;;;;;;12.05;7.03;;;;;;;23.84;25.89;102922.38;5228279;28;20049;-79
2022/04/28 11:35:34;;;;;;;14.50;8.20;;;;;;;23.73;25.56;102922.41;5228307;28;20075;-79
2022/04/28 11:38:08;;;;;;;16.65;8.48;;;;;;;23.37;25.99;102919.97;5226043;28;20108;-79
2022/04/28 11:40:42;;;;;;;15.93;7.95;;;;;;;23.30;26.49;102922.31;5226371;28;20083;-79
2022/04/28 11:43:14;;;;;;;19.67;7.68;;;;;;;23.06;26.88;102904.63;5227792;28;20456;-78
2022/04/28 11:45:45;;;;;;;16.02;7.85;;;;;;;23.38;26.63;102914.50;5227818;28;20022;-78
2022/04/28 11:48:17;;;;;;;11.70;7.78;;;;;;;23.43;27.01;102912.31;5227985;28;20025;-79
2022/04/28 11:50:48;;;;;;;16.55;8.85;;;;;;;23.01;27.45;102917.50;5226688;28;20053;-78
2022/04/28 11:53:19;;;;;;;13.40;7.22;;;;;;;23.43;27.10;102912.31;5226317;28;20108;-78
2022/04/28 11:55:51;;;;;;;15.80;7.88;;;;;;;23.49;26.87;102920.81;5226530;28;20443;-79
2022/04/28 11:58:22;;;;;;;15.32;8.30;;;;;;;24.03;26.17;102897.56;5226753;28;20116;-79
2022/04/28 12:00:56;;;;;;;14.00;7.93;;;;;;;23.64;26.75;102916.84;5227284;28;20122;-78
2022/04/28 12:03:30;;;;;;;12.00;7.60;;;;;;;23.01;27.37;102912.16;5227898;28;20531;-78
2022/04/28 12:06:04;;;;;;;15.10;7.63;;;;;;;23.29;27.39;102904.56;5227432;28;20021;-78
2022/04/28 12:08:35;;;;;;;13.35;7.93;;;;;;;23.27;27.79;102909.19;5242071;28;20064;-78
2022/04/28 12:19:57;;;;;;;18.60;8.95;;;;;;;22.92;27.65;102906.59;5227331;28;20037;-78
2022/04/28 12:22:39;;;;;;;13.95;7.82;;;;;;;22.64;27.90;102902.63;5227284;28;20037;-78
2022/04/28 12:25:16;;;;;;;12.23;8.35;;;;;;;22.53;28.58;102903.44;5225085;28;20029;-78
2022/04/28 12:27:51;;;;;;;16.75;8.30;;;;;;;22.55;28.12;102893.50;5226678;28;20127;-78
2022/04/28 12:30:23;;;;;;;13.25;7.88;;;;;;;23.12;27.68;102896.13;5227567;28;20030;-79